Key Largo, FL (33037)

1:17 PM EDT on March 30, 2017 (GMT -0400)
| | Change Station

Elev -9999 ft 0.00 °N, 0.00 °E | Updated 2 minutes ago

Partly Cloudy
Partly Cloudy
°F
Feels Like °F
N
Wind Variable Wind from North
Gusts mph

Today
High -- | Low -- °F
--% Chance of Precip.
Yesterday
High -- | Low -- °F
Precip. -- in
Pressure 29.99 in
Visibility 10.0 miles
Clouds Scattered Clouds 3700 ft
Scattered Clouds 5000 ft
Scattered Clouds 21000 ft
Dew Point Not available.
Humidity Not available.
Rainfall --
Snow Depth Not available.
7:15 AM 7:37 PM
Waxing Crescent, 9% visible
SPECI KHST 301708Z AUTO 12012G18KT 10SM -RA SCT037 SCT050 SCT210 27/18 A2998 RMK AO2 RAE1658RAB08 SLP155
Pressure 29.99 in
Visibility 10.0 miles
Clouds Scattered Clouds 3700 ft
Scattered Clouds 5000 ft
Scattered Clouds 21000 ft
Dew Point Not available.
Humidity Not available.
Rainfall --
Snow Depth Not available.
7:15 AM 7:37 PM
Waxing Crescent, 9% visible
SPECI KHST 301708Z AUTO 12012G18KT 10SM -RA SCT037 SCT050 SCT210 27/18 A2998 RMK AO2 RAE1658RAB08 SLP155

Get Severe Weather Alerts

Thanks for signing up!

Be on the lookout for a verification email in your inbox.

You'll start receiving the daily forecast at 8 AM.

×

10-Day Weather Forecast

Almanac

Astronomy

Mar. 30, 2017 Rise Set
Actual Time
Civil Twilight
Nautical Twilight
Astronomical Twilight
Moon
Length of Visible Light
Length of Day
Tomorrow will be .
, % of the Moon is Illuminated

Today's Extremes

State Highs State Lows

Community

WunderPhotos

Upload Photos

1,962,540 photos uploaded!

WunderBlog® & News

Nearby

Air Quality

  Air Quality AQ Index Pollutant
Not available.

Snow Depth

Station Depth Elevation

Earthquake Activity

City Distance Mag. Time & Date
Minimum magnitude displayed is 2.5.

Earthquake Activity

City Distance Mag. Time & Date
Minimum magnitude displayed is 2.5.

Coastal Water Temperatures

Place Temperature

Stations

Nearby Weather Stations

Station Location Temp. Windchill Dew Point Humidity Wind Precip. Elev Updated Type
                   

Watches & Warnings

There are currently no watches in effect.